sensor_id;sensor_type;location;lat;lon;timestamp;P1;durP1;ratioP1;P2;durP2;ratioP2
20318;SDS011;10317;47.254;11.314;2023-07-13T00:00:53;5.28;;;1.73;;
20318;SDS011;10317;47.254;11.314;2023-07-13T00:03:19;1.70;;;1.60;;
20318;SDS011;10317;47.254;11.314;2023-07-13T00:05:44;2.58;;;1.85;;
20318;SDS011;10317;47.254;11.314;2023-07-13T00:08:10;4.78;;;1.98;;
20318;SDS011;10317;47.254;11.314;2023-07-13T00:10:42;3.63;;;1.77;;
20318;SDS011;10317;47.254;11.314;2023-07-13T00:13:11;1.65;;;1.50;;
20318;SDS011;10317;47.254;11.314;2023-07-13T00:15:37;1.70;;;1.60;;
20318;SDS011;10317;47.254;11.314;2023-07-13T00:18:02;1.70;;;1.60;;
20318;SDS011;10317;47.254;11.314;2023-07-13T00:20:28;1.80;;;1.67;;
20318;SDS011;10317;47.254;11.314;2023-07-13T00:22:54;2.17;;;1.98;;
20318;SDS011;10317;47.254;11.314;2023-07-13T00:25:20;2.30;;;1.70;;
20318;SDS011;10317;47.254;11.314;2023-07-13T00:27:49;3.38;;;3.08;;
20318;SDS011;10317;47.254;11.314;2023-07-13T00:30:15;2.00;;;1.80;;
20318;SDS011;10317;47.254;11.314;2023-07-13T00:32:41;4.32;;;1.65;;
20318;SDS011;10317;47.254;11.314;2023-07-13T00:35:07;4.82;;;1.90;;
20318;SDS011;10317;47.254;11.314;2023-07-13T00:37:33;2.10;;;1.95;;
20318;SDS011;10317;47.254;11.314;2023-07-13T00:40:01;5.10;;;1.90;;
20318;SDS011;10317;47.254;11.314;2023-07-13T00:42:28;2.80;;;1.95;;
20318;SDS011;10317;47.254;11.314;2023-07-13T00:47:41;2.17;;;1.95;;
20318;SDS011;10317;47.254;11.314;2023-07-13T00:50:09;1.75;;;1.65;;
20318;SDS011;10317;47.254;11.314;2023-07-13T00:52:38;1.98;;;1.58;;
20318;SDS011;10317;47.254;11.314;2023-07-13T00:55:06;2.13;;;1.92;;
20318;SDS011;10317;47.254;11.314;2023-07-13T00:57:34;1.80;;;1.70;;
20318;SDS011;10317;47.254;11.314;2023-07-13T01:00:01;1.48;;;1.38;;
20318;SDS011;10317;47.254;11.314;2023-07-13T01:02:31;3.13;;;2.03;;
20318;SDS011;10317;47.254;11.314;2023-07-13T01:04:58;1.40;;;1.40;;
20318;SDS011;10317;47.254;11.314;2023-07-13T01:07:24;2.38;;;1.90;;
20318;SDS011;10317;47.254;11.314;2023-07-13T01:09:50;6.63;;;2.00;;
20318;SDS011;10317;47.254;11.314;2023-07-13T01:12:16;2.55;;;2.15;;
20318;SDS011;10317;47.254;11.314;2023-07-13T01:14:41;1.80;;;1.70;;
20318;SDS011;10317;47.254;11.314;2023-07-13T01:17:10;3.13;;;2.38;;
20318;SDS011;10317;47.254;11.314;2023-07-13T01:19:37;1.95;;;1.63;;
20318;SDS011;10317;47.254;11.314;2023-07-13T01:22:12;2.70;;;1.40;;
20318;SDS011;10317;47.254;11.314;2023-07-13T01:24:41;1.60;;;1.48;;
20318;SDS011;10317;47.254;11.314;2023-07-13T01:27:08;4.68;;;1.77;;
20318;SDS011;10317;47.254;11.314;2023-07-13T01:29:36;2.78;;;1.90;;
20318;SDS011;10317;47.254;11.314;2023-07-13T01:32:11;2.05;;;1.60;;
20318;SDS011;10317;47.254;11.314;2023-07-13T01:34:39;1.60;;;1.50;;
20318;SDS011;10317;47.254;11.314;2023-07-13T01:37:07;2.50;;;1.73;;
20318;SDS011;10317;47.254;11.314;2023-07-13T01:39:34;2.15;;;1.98;;
20318;SDS011;10317;47.254;11.314;2023-07-13T01:42:00;1.98;;;1.33;;
20318;SDS011;10317;47.254;11.314;2023-07-13T01:44:26;1.70;;;1.60;;
20318;SDS011;10317;47.254;11.314;2023-07-13T01:46:52;2.10;;;1.90;;
20318;SDS011;10317;47.254;11.314;2023-07-13T01:49:18;2.60;;;1.92;;
20318;SDS011;10317;47.254;11.314;2023-07-13T01:51:44;1.70;;;1.20;;
20318;SDS011;10317;47.254;11.314;2023-07-13T01:54:10;2.00;;;1.80;;
20318;SDS011;10317;47.254;11.314;2023-07-13T01:56:35;6.03;;;2.22;;
20318;SDS011;10317;47.254;11.314;2023-07-13T01:59:01;1.67;;;1.58;;
20318;SDS011;10317;47.254;11.314;2023-07-13T02:01:27;1.75;;;1.58;;
20318;SDS011;10317;47.254;11.314;2023-07-13T02:03:52;2.63;;;1.80;;
20318;SDS011;10317;47.254;11.314;2023-07-13T02:06:18;2.75;;;1.55;;
20318;SDS011;10317;47.254;11.314;2023-07-13T02:08:44;1.75;;;1.33;;
20318;SDS011;10317;47.254;11.314;2023-07-13T02:11:09;1.80;;;1.70;;
20318;SDS011;10317;47.254;11.314;2023-07-13T02:13:36;3.05;;;1.50;;
20318;SDS011;10317;47.254;11.314;2023-07-13T02:16:01;1.50;;;1.50;;
20318;SDS011;10317;47.254;11.314;2023-07-13T02:18:27;2.28;;;1.60;;
20318;SDS011;10317;47.254;11.314;2023-07-13T02:20:53;1.48;;;1.40;;
20318;SDS011;10317;47.254;11.314;2023-07-13T02:23:19;1.42;;;1.42;;
20318;SDS011;10317;47.254;11.314;2023-07-13T02:25:45;2.28;;;1.70;;
20318;SDS011;10317;47.254;11.314;2023-07-13T02:28:11;1.70;;;1.60;;
20318;SDS011;10317;47.254;11.314;2023-07-13T02:30:36;2.83;;;1.85;;
20318;SDS011;10317;47.254;11.314;2023-07-13T02:33:03;2.35;;;1.45;;
20318;SDS011;10317;47.254;11.314;2023-07-13T02:35:29;1.80;;;1.70;;
20318;SDS011;10317;47.254;11.314;2023-07-13T02:37:55;2.60;;;1.65;;
20318;SDS011;10317;47.254;11.314;2023-07-13T02:40:21;1.42;;;1.20;;
20318;SDS011;10317;47.254;11.314;2023-07-13T02:42:47;1.40;;;1.30;;
20318;SDS011;10317;47.254;11.314;2023-07-13T02:45:12;1.60;;;1.50;;
20318;SDS011;10317;47.254;11.314;2023-07-13T02:47:40;1.35;;;1.10;;
20318;SDS011;10317;47.254;11.314;2023-07-13T02:50:06;2.78;;;1.30;;
20318;SDS011;10317;47.254;11.314;2023-07-13T02:52:32;1.33;;;1.33;;
20318;SDS011;10317;47.254;11.314;2023-07-13T02:54:58;1.30;;;1.30;;
20318;SDS011;10317;47.254;11.314;2023-07-13T02:57:24;1.20;;;1.20;;
20318;SDS011;10317;47.254;11.314;2023-07-13T02:59:49;4.30;;;1.65;;
20318;SDS011;10317;47.254;11.314;2023-07-13T03:02:15;1.42;;;1.33;;
20318;SDS011;10317;47.254;11.314;2023-07-13T03:04:41;1.38;;;1.27;;
20318;SDS011;10317;47.254;11.314;2023-07-13T03:07:07;1.88;;;1.17;;
20318;SDS011;10317;47.254;11.314;2023-07-13T03:09:33;1.02;;;1.00;;
20318;SDS011;10317;47.254;11.314;2023-07-13T03:11:59;1.50;;;1.40;;
20318;SDS011;10317;47.254;11.314;2023-07-13T03:14:25;1.05;;;1.05;;
20318;SDS011;10317;47.254;11.314;2023-07-13T03:16:51;1.05;;;1.05;;
20318;SDS011;10317;47.254;11.314;2023-07-13T03:19:17;1.50;;;1.40;;
20318;SDS011;10317;47.254;11.314;2023-07-13T03:21:44;1.77;;;1.40;;
20318;SDS011;10317;47.254;11.314;2023-07-13T03:24:10;1.58;;;1.20;;
20318;SDS011;10317;47.254;11.314;2023-07-13T03:26:36;1.27;;;1.25;;
20318;SDS011;10317;47.254;11.314;2023-07-13T03:29:01;1.20;;;1.20;;
20318;SDS011;10317;47.254;11.314;2023-07-13T03:31:29;1.40;;;1.30;;
20318;SDS011;10317;47.254;11.314;2023-07-13T03:33:58;2.30;;;1.50;;
20318;SDS011;10317;47.254;11.314;2023-07-13T03:36:26;2.05;;;1.63;;
20318;SDS011;10317;47.254;11.314;2023-07-13T03:38:54;2.17;;;1.95;;
20318;SDS011;10317;47.254;11.314;2023-07-13T03:41:23;2.38;;;1.38;;
20318;SDS011;10317;47.254;11.314;2023-07-13T03:43:50;1.70;;;1.60;;
20318;SDS011;10317;47.254;11.314;2023-07-13T03:46:16;1.73;;;1.48;;
20318;SDS011;10317;47.254;11.314;2023-07-13T03:48:43;2.03;;;1.65;;
20318;SDS011;10317;47.254;11.314;2023-07-13T03:51:11;1.95;;;1.85;;
20318;SDS011;10317;47.254;11.314;2023-07-13T03:53:40;2.03;;;1.70;;
20318;SDS011;10317;47.254;11.314;2023-07-13T03:56:08;1.40;;;1.30;;
20318;SDS011;10317;47.254;11.314;2023-07-13T03:58:36;2.88;;;2.67;;
20318;SDS011;10317;47.254;11.314;2023-07-13T04:01:05;5.40;;;2.45;;
20318;SDS011;10317;47.254;11.314;2023-07-13T04:03:32;1.73;;;1.63;;
20318;SDS011;10317;47.254;11.314;2023-07-13T04:05:59;3.30;;;1.58;;
20318;SDS011;10317;47.254;11.314;2023-07-13T04:08:29;2.03;;;1.85;;
20318;SDS011;10317;47.254;11.314;2023-07-13T04:10:57;1.70;;;1.60;;
20318;SDS011;10317;47.254;11.314;2023-07-13T04:13:24;1.27;;;1.27;;
20318;SDS011;10317;47.254;11.314;2023-07-13T04:15:51;1.85;;;1.63;;
20318;SDS011;10317;47.254;11.314;2023-07-13T04:18:17;1.52;;;1.50;;
20318;SDS011;10317;47.254;11.314;2023-07-13T04:20:44;5.13;;;1.65;;
20318;SDS011;10317;47.254;11.314;2023-07-13T04:23:11;1.38;;;1.38;;
20318;SDS011;10317;47.254;11.314;2023-07-13T04:25:37;2.95;;;2.65;;
20318;SDS011;10317;47.254;11.314;2023-07-13T04:28:03;1.65;;;1.55;;
20318;SDS011;10317;47.254;11.314;2023-07-13T04:30:29;1.60;;;1.52;;
20318;SDS011;10317;47.254;11.314;2023-07-13T04:32:54;1.50;;;1.40;;
20318;SDS011;10317;47.254;11.314;2023-07-13T04:35:20;1.58;;;1.58;;
20318;SDS011;10317;47.254;11.314;2023-07-13T04:37:47;1.42;;;1.08;;
20318;SDS011;10317;47.254;11.314;2023-07-13T04:40:15;2.70;;;1.40;;
20318;SDS011;10317;47.254;11.314;2023-07-13T04:42:42;1.27;;;1.27;;
20318;SDS011;10317;47.254;11.314;2023-07-13T04:45:07;2.40;;;1.40;;
20318;SDS011;10317;47.254;11.314;2023-07-13T04:47:33;3.45;;;1.50;;
20318;SDS011;10317;47.254;11.314;2023-07-13T04:49:59;2.50;;;1.42;;
20318;SDS011;10317;47.254;11.314;2023-07-13T04:52:25;2.15;;;1.50;;
20318;SDS011;10317;47.254;11.314;2023-07-13T04:54:50;1.52;;;1.40;;
20318;SDS011;10317;47.254;11.314;2023-07-13T04:57:16;1.70;;;1.60;;
20318;SDS011;10317;47.254;11.314;2023-07-13T04:59:41;1.58;;;1.58;;
20318;SDS011;10317;47.254;11.314;2023-07-13T05:02:07;4.32;;;1.90;;
20318;SDS011;10317;47.254;11.314;2023-07-13T05:04:33;1.65;;;1.55;;
20318;SDS011;10317;47.254;11.314;2023-07-13T05:06:59;2.58;;;1.40;;
20318;SDS011;10317;47.254;11.314;2023-07-13T05:09:25;1.42;;;1.33;;
20318;SDS011;10317;47.254;11.314;2023-07-13T05:11:51;1.52;;;1.40;;
20318;SDS011;10317;47.254;11.314;2023-07-13T05:14:17;3.72;;;1.33;;
20318;SDS011;10317;47.254;11.314;2023-07-13T05:16:42;1.23;;;1.23;;
20318;SDS011;10317;47.254;11.314;2023-07-13T05:19:08;1.83;;;1.38;;
20318;SDS011;10317;47.254;11.314;2023-07-13T05:21:35;2.55;;;1.58;;
20318;SDS011;10317;47.254;11.314;2023-07-13T05:24:00;1.38;;;1.38;;
20318;SDS011;10317;47.254;11.314;2023-07-13T05:26:26;3.20;;;1.30;;
20318;SDS011;10317;47.254;11.314;2023-07-13T05:28:52;1.35;;;1.35;;
20318;SDS011;10317;47.254;11.314;2023-07-13T05:31:17;1.25;;;1.20;;
20318;SDS011;10317;47.254;11.314;2023-07-13T05:33:43;1.40;;;1.40;;
20318;SDS011;10317;47.254;11.314;2023-07-13T05:36:09;1.85;;;1.55;;
20318;SDS011;10317;47.254;11.314;2023-07-13T05:38:35;1.33;;;1.30;;
20318;SDS011;10317;47.254;11.314;2023-07-13T05:41:00;2.08;;;1.90;;
20318;SDS011;10317;47.254;11.314;2023-07-13T05:43:26;1.60;;;1.55;;
20318;SDS011;10317;47.254;11.314;2023-07-13T05:45:55;1.55;;;1.50;;
20318;SDS011;10317;47.254;11.314;2023-07-13T05:48:21;2.05;;;1.58;;
20318;SDS011;10317;47.254;11.314;2023-07-13T05:50:47;4.05;;;1.75;;
20318;SDS011;10317;47.254;11.314;2023-07-13T05:53:14;2.75;;;1.52;;
20318;SDS011;10317;47.254;11.314;2023-07-13T05:55:44;2.97;;;1.50;;
20318;SDS011;10317;47.254;11.314;2023-07-13T05:58:13;6.70;;;1.95;;
20318;SDS011;10317;47.254;11.314;2023-07-13T06:00:39;2.80;;;1.60;;
20318;SDS011;10317;47.254;11.314;2023-07-13T06:03:05;1.95;;;1.45;;
20318;SDS011;10317;47.254;11.314;2023-07-13T06:05:32;2.05;;;1.45;;
20318;SDS011;10317;47.254;11.314;2023-07-13T06:07:58;1.70;;;1.60;;
20318;SDS011;10317;47.254;11.314;2023-07-13T06:10:24;1.67;;;1.60;;
20318;SDS011;10317;47.254;11.314;2023-07-13T06:12:50;2.10;;;1.48;;
20318;SDS011;10317;47.254;11.314;2023-07-13T06:15:16;3.03;;;1.63;;
20318;SDS011;10317;47.254;11.314;2023-07-13T06:17:42;1.52;;;1.48;;
20318;SDS011;10317;47.254;11.314;2023-07-13T06:20:07;1.40;;;1.40;;
20318;SDS011;10317;47.254;11.314;2023-07-13T06:22:33;1.88;;;1.77;;
20318;SDS011;10317;47.254;11.314;2023-07-13T06:24:59;1.67;;;1.58;;
20318;SDS011;10317;47.254;11.314;2023-07-13T06:27:24;4.70;;;1.83;;
20318;SDS011;10317;47.254;11.314;2023-07-13T06:29:50;1.67;;;1.58;;
20318;SDS011;10317;47.254;11.314;2023-07-13T06:32:16;1.92;;;1.83;;
20318;SDS011;10317;47.254;11.314;2023-07-13T06:34:41;1.95;;;1.85;;
20318;SDS011;10317;47.254;11.314;2023-07-13T06:37:07;3.17;;;1.95;;
20318;SDS011;10317;47.254;11.314;2023-07-13T06:39:33;4.05;;;1.90;;
20318;SDS011;10317;47.254;11.314;2023-07-13T06:42:00;2.60;;;2.40;;
20318;SDS011;10317;47.254;11.314;2023-07-13T06:44:35;2.15;;;2.05;;
20318;SDS011;10317;47.254;11.314;2023-07-13T06:47:02;2.47;;;2.22;;
20318;SDS011;10317;47.254;11.314;2023-07-13T06:49:51;2.45;;;2.15;;
20318;SDS011;10317;47.254;11.314;2023-07-13T06:55:50;1.88;;;1.77;;
20318;SDS011;10317;47.254;11.314;2023-07-13T06:58:18;2.03;;;1.92;;
20318;SDS011;10317;47.254;11.314;2023-07-13T07:00:50;2.58;;;2.38;;
20318;SDS011;10317;47.254;11.314;2023-07-13T07:03:22;1.77;;;1.67;;
20318;SDS011;10317;47.254;11.314;2023-07-13T07:05:49;2.17;;;2.08;;
20318;SDS011;10317;47.254;11.314;2023-07-13T07:08:34;5.90;;;2.03;;
20318;SDS011;10317;47.254;11.314;2023-07-13T07:11:01;1.98;;;1.88;;
20318;SDS011;10317;47.254;11.314;2023-07-13T07:13:27;2.28;;;2.10;;
20318;SDS011;10317;47.254;11.314;2023-07-13T07:15:54;7.35;;;2.25;;
20318;SDS011;10317;47.254;11.314;2023-07-13T07:18:22;3.08;;;2.08;;
20318;SDS011;10317;47.254;11.314;2023-07-13T07:20:48;2.22;;;2.05;;
20318;SDS011;10317;47.254;11.314;2023-07-13T07:23:21;3.17;;;2.40;;
20318;SDS011;10317;47.254;11.314;2023-07-13T07:25:47;2.00;;;1.90;;
20318;SDS011;10317;47.254;11.314;2023-07-13T07:28:14;1.85;;;1.73;;
20318;SDS011;10317;47.254;11.314;2023-07-13T07:30:43;4.22;;;2.25;;
20318;SDS011;10317;47.254;11.314;2023-07-13T07:33:09;2.17;;;2.08;;
20318;SDS011;10317;47.254;11.314;2023-07-13T07:35:35;3.30;;;2.53;;
20318;SDS011;10317;47.254;11.314;2023-07-13T07:38:01;4.55;;;2.08;;
20318;SDS011;10317;47.254;11.314;2023-07-13T07:40:27;2.67;;;1.92;;
20318;SDS011;10317;47.254;11.314;2023-07-13T07:42:58;2.08;;;1.90;;
20318;SDS011;10317;47.254;11.314;2023-07-13T07:45:51;2.55;;;1.85;;
20318;SDS011;10317;47.254;11.314;2023-07-13T07:48:16;1.77;;;1.67;;
20318;SDS011;10317;47.254;11.314;2023-07-13T07:50:46;2.10;;;2.00;;
20318;SDS011;10317;47.254;11.314;2023-07-13T07:53:12;1.88;;;1.77;;
20318;SDS011;10317;47.254;11.314;2023-07-13T07:55:38;1.70;;;1.70;;
20318;SDS011;10317;47.254;11.314;2023-07-13T07:58:04;1.20;;;1.20;;
20318;SDS011;10317;47.254;11.314;2023-07-13T08:00:31;2.17;;;1.80;;
20318;SDS011;10317;47.254;11.314;2023-07-13T08:02:57;1.77;;;1.75;;
20318;SDS011;10317;47.254;11.314;2023-07-13T08:05:23;2.92;;;1.83;;
20318;SDS011;10317;47.254;11.314;2023-07-13T08:07:49;4.07;;;2.20;;
20318;SDS011;10317;47.254;11.314;2023-07-13T08:10:15;4.90;;;1.92;;
20318;SDS011;10317;47.254;11.314;2023-07-13T08:12:41;3.22;;;2.03;;
20318;SDS011;10317;47.254;11.314;2023-07-13T08:15:08;4.55;;;2.35;;
20318;SDS011;10317;47.254;11.314;2023-07-13T08:17:41;2.55;;;1.70;;
20318;SDS011;10317;47.254;11.314;2023-07-13T08:20:07;1.55;;;1.55;;
20318;SDS011;10317;47.254;11.314;2023-07-13T08:22:34;2.03;;;1.85;;
20318;SDS011;10317;47.254;11.314;2023-07-13T08:25:00;2.03;;;1.92;;
20318;SDS011;10317;47.254;11.314;2023-07-13T08:27:26;1.95;;;1.85;;
20318;SDS011;10317;47.254;11.314;2023-07-13T08:29:53;2.53;;;2.33;;
20318;SDS011;10317;47.254;11.314;2023-07-13T08:32:20;1.92;;;1.83;;
20318;SDS011;10317;47.254;11.314;2023-07-13T08:34:47;1.58;;;1.58;;
20318;SDS011;10317;47.254;11.314;2023-07-13T08:37:15;3.50;;;2.13;;
20318;SDS011;10317;47.254;11.314;2023-07-13T08:39:42;2.30;;;2.10;;
20318;SDS011;10317;47.254;11.314;2023-07-13T08:47:37;2.47;;;2.28;;
20318;SDS011;10317;47.254;11.314;2023-07-13T08:50:08;2.38;;;2.17;;
20318;SDS011;10317;47.254;11.314;2023-07-13T08:52:39;2.05;;;1.85;;
20318;SDS011;10317;47.254;11.314;2023-07-13T08:57:44;2.65;;;2.15;;
20318;SDS011;10317;47.254;11.314;2023-07-13T09:00:19;3.47;;;2.45;;
20318;SDS011;10317;47.254;11.314;2023-07-13T09:02:46;3.95;;;2.13;;
20318;SDS011;10317;47.254;11.314;2023-07-13T09:05:18;2.50;;;2.15;;
20318;SDS011;10317;47.254;11.314;2023-07-13T09:10:52;2.65;;;2.17;;
20318;SDS011;10317;47.254;11.314;2023-07-13T09:16:11;3.83;;;2.13;;
20318;SDS011;10317;47.254;11.314;2023-07-13T09:18:38;2.13;;;1.98;;
20318;SDS011;10317;47.254;11.314;2023-07-13T09:21:10;1.90;;;1.80;;
20318;SDS011;10317;47.254;11.314;2023-07-13T09:23:56;1.88;;;1.77;;
20318;SDS011;10317;47.254;11.314;2023-07-13T09:26:28;1.80;;;1.80;;
20318;SDS011;10317;47.254;11.314;2023-07-13T09:28:57;3.47;;;2.70;;
20318;SDS011;10317;47.254;11.314;2023-07-13T09:31:41;1.83;;;1.73;;
20318;SDS011;10317;47.254;11.314;2023-07-13T09:34:10;3.15;;;1.92;;
20318;SDS011;10317;47.254;11.314;2023-07-13T09:36:37;1.88;;;1.77;;
20318;SDS011;10317;47.254;11.314;2023-07-13T09:39:25;2.55;;;1.90;;
20318;SDS011;10317;47.254;11.314;2023-07-13T09:47:50;3.13;;;1.65;;
20318;SDS011;10317;47.254;11.314;2023-07-13T09:50:05;1.85;;;1.77;;
20318;SDS011;10317;47.254;11.314;2023-07-13T09:52:41;1.83;;;1.60;;
20318;SDS011;10317;47.254;11.314;2023-07-13T09:58:02;1.73;;;1.63;;
20318;SDS011;10317;47.254;11.314;2023-07-13T10:00:35;1.55;;;1.45;;
20318;SDS011;10317;47.254;11.314;2023-07-13T10:03:09;1.90;;;1.80;;
20318;SDS011;10317;47.254;11.314;2023-07-13T10:05:47;1.23;;;1.20;;
20318;SDS011;10317;47.254;11.314;2023-07-13T10:08:36;1.40;;;1.40;;
20318;SDS011;10317;47.254;11.314;2023-07-13T10:11:08;1.70;;;1.70;;
20318;SDS011;10317;47.254;11.314;2023-07-13T10:13:48;3.70;;;1.77;;
20318;SDS011;10317;47.254;11.314;2023-07-13T10:16:18;2.38;;;1.88;;
20318;SDS011;10317;47.254;11.314;2023-07-13T10:18:46;2.08;;;1.98;;
20318;SDS011;10317;47.254;11.314;2023-07-13T10:21:21;1.60;;;1.50;;
20318;SDS011;10317;47.254;11.314;2023-07-13T10:23:55;1.35;;;1.25;;
20318;SDS011;10317;47.254;11.314;2023-07-13T10:26:31;1.13;;;1.13;;
20318;SDS011;10317;47.254;11.314;2023-07-13T10:29:04;1.50;;;1.17;;
20318;SDS011;10317;47.254;11.314;2023-07-13T10:31:36;1.25;;;1.25;;
20318;SDS011;10317;47.254;11.314;2023-07-13T10:34:03;1.23;;;1.23;;
20318;SDS011;10317;47.254;11.314;2023-07-13T10:36:46;1.80;;;1.70;;
20318;SDS011;10317;47.254;11.314;2023-07-13T10:39:17;1.65;;;1.30;;
20318;SDS011;10317;47.254;11.314;2023-07-13T10:41:46;1.23;;;1.23;;
20318;SDS011;10317;47.254;11.314;2023-07-13T10:50:02;1.65;;;1.42;;
20318;SDS011;10317;47.254;11.314;2023-07-13T11:03:10;1.42;;;1.30;;
20318;SDS011;10317;47.254;11.314;2023-07-13T11:05:40;2.22;;;1.52;;
20318;SDS011;10317;47.254;11.314;2023-07-13T11:08:13;1.50;;;1.45;;
20318;SDS011;10317;47.254;11.314;2023-07-13T11:14:29;2.38;;;1.40;;
20318;SDS011;10317;47.254;11.314;2023-07-13T11:16:58;1.85;;;1.13;;
20318;SDS011;10317;47.254;11.314;2023-07-13T11:20:40;1.83;;;1.73;;
20318;SDS011;10317;47.254;11.314;2023-07-13T11:23:19;2.10;;;1.83;;
20318;SDS011;10317;47.254;11.314;2023-07-13T11:31:59;1.63;;;1.52;;
20318;SDS011;10317;47.254;11.314;2023-07-13T11:34:46;1.58;;;1.58;;
20318;SDS011;10317;47.254;11.314;2023-07-13T11:37:13;1.73;;;1.63;;
20318;SDS011;10317;47.254;11.314;2023-07-13T11:39:43;1.33;;;1.33;;
20318;SDS011;10317;47.254;11.314;2023-07-13T11:42:14;2.10;;;1.63;;
20318;SDS011;10317;47.254;11.314;2023-07-13T11:44:48;2.17;;;1.80;;
20318;SDS011;10317;47.254;11.314;2023-07-13T11:47:19;2.00;;;1.90;;
20318;SDS011;10317;47.254;11.314;2023-07-13T11:49:50;2.40;;;2.30;;
20318;SDS011;10317;47.254;11.314;2023-07-13T11:52:34;1.73;;;1.63;;
20318;SDS011;10317;47.254;11.314;2023-07-13T11:55:03;1.85;;;1.75;;
20318;SDS011;10317;47.254;11.314;2023-07-13T11:57:43;1.30;;;1.20;;
20318;SDS011;10317;47.254;11.314;2023-07-13T12:00:12;4.13;;;1.30;;
20318;SDS011;10317;47.254;11.314;2023-07-13T12:02:51;1.20;;;1.10;;
20318;SDS011;10317;47.254;11.314;2023-07-13T12:05:19;1.17;;;1.17;;
20318;SDS011;10317;47.254;11.314;2023-07-13T12:07:46;1.65;;;0.70;;
20318;SDS011;10317;47.254;11.314;2023-07-13T12:10:17;0.77;;;0.77;;
20318;SDS011;10317;47.254;11.314;2023-07-13T12:13:26;0.93;;;0.93;;
20318;SDS011;10317;47.254;11.314;2023-07-13T12:18:11;1.48;;;0.90;;
20318;SDS011;10317;47.254;11.314;2023-07-13T12:20:43;0.50;;;0.50;;
20318;SDS011;10317;47.254;11.314;2023-07-13T12:23:32;0.98;;;0.98;;
20318;SDS011;10317;47.254;11.314;2023-07-13T12:25:59;1.08;;;0.65;;
20318;SDS011;10317;47.254;11.314;2023-07-13T12:28:34;0.90;;;0.77;;
20318;SDS011;10317;47.254;11.314;2023-07-13T12:31:22;0.60;;;0.60;;
20318;SDS011;10317;47.254;11.314;2023-07-13T12:34:16;0.63;;;0.50;;
20318;SDS011;10317;47.254;11.314;2023-07-13T12:36:51;0.60;;;0.60;;
20318;SDS011;10317;47.254;11.314;2023-07-13T12:42:18;0.90;;;0.70;;
20318;SDS011;10317;47.254;11.314;2023-07-13T12:44:53;0.93;;;0.93;;
20318;SDS011;10317;47.254;11.314;2023-07-13T12:47:25;0.80;;;0.80;;
20318;SDS011;10317;47.254;11.314;2023-07-13T12:49:56;0.63;;;0.63;;
20318;SDS011;10317;47.254;11.314;2023-07-13T12:52:31;0.95;;;0.85;;
20318;SDS011;10317;47.254;11.314;2023-07-13T12:57:38;0.85;;;0.70;;
20318;SDS011;10317;47.254;11.314;2023-07-13T13:00:09;2.72;;;0.68;;
20318;SDS011;10317;47.254;11.314;2023-07-13T13:02:50;3.10;;;0.90;;
20318;SDS011;10317;47.254;11.314;2023-07-13T13:05:18;0.90;;;0.90;;
20318;SDS011;10317;47.254;11.314;2023-07-13T13:07:44;0.70;;;0.70;;
20318;SDS011;10317;47.254;11.314;2023-07-13T13:10:13;0.88;;;0.88;;
20318;SDS011;10317;47.254;11.314;2023-07-13T13:12:39;1.10;;;0.82;;
20318;SDS011;10317;47.254;11.314;2023-07-13T13:15:08;0.63;;;0.63;;
20318;SDS011;10317;47.254;11.314;2023-07-13T13:17:34;0.63;;;0.63;;
20318;SDS011;10317;47.254;11.314;2023-07-13T13:20:00;0.85;;;0.85;;
20318;SDS011;10317;47.254;11.314;2023-07-13T13:22:27;0.57;;;0.57;;
20318;SDS011;10317;47.254;11.314;2023-07-13T13:24:53;0.70;;;0.70;;
20318;SDS011;10317;47.254;11.314;2023-07-13T13:27:22;0.57;;;0.57;;
20318;SDS011;10317;47.254;11.314;2023-07-13T13:29:51;0.60;;;0.60;;
20318;SDS011;10317;47.254;11.314;2023-07-13T13:32:18;1.35;;;0.90;;
20318;SDS011;10317;47.254;11.314;2023-07-13T13:34:44;0.77;;;0.77;;
20318;SDS011;10317;47.254;11.314;2023-07-13T13:37:17;0.73;;;0.73;;
20318;SDS011;10317;47.254;11.314;2023-07-13T13:39:47;0.85;;;0.60;;
20318;SDS011;10317;47.254;11.314;2023-07-13T13:42:14;0.75;;;0.75;;
20318;SDS011;10317;47.254;11.314;2023-07-13T13:44:42;1.27;;;1.00;;
20318;SDS011;10317;47.254;11.314;2023-07-13T13:47:19;0.70;;;0.70;;
20318;SDS011;10317;47.254;11.314;2023-07-13T13:49:57;0.98;;;0.98;;
20318;SDS011;10317;47.254;11.314;2023-07-13T13:52:24;1.42;;;0.85;;
20318;SDS011;10317;47.254;11.314;2023-07-13T13:54:50;0.70;;;0.70;;
20318;SDS011;10317;47.254;11.314;2023-07-13T13:57:21;0.80;;;0.80;;
20318;SDS011;10317;47.254;11.314;2023-07-13T13:59:48;1.73;;;0.80;;
20318;SDS011;10317;47.254;11.314;2023-07-13T14:02:25;2.08;;;0.90;;
20318;SDS011;10317;47.254;11.314;2023-07-13T14:04:54;0.70;;;0.70;;
20318;SDS011;10317;47.254;11.314;2023-07-13T14:07:30;1.20;;;0.80;;
20318;SDS011;10317;47.254;11.314;2023-07-13T14:09:57;0.95;;;0.95;;
20318;SDS011;10317;47.254;11.314;2023-07-13T14:12:23;0.90;;;0.90;;
20318;SDS011;10317;47.254;11.314;2023-07-13T14:14:53;0.80;;;0.80;;
20318;SDS011;10317;47.254;11.314;2023-07-13T14:17:33;1.92;;;1.02;;
20318;SDS011;10317;47.254;11.314;2023-07-13T14:19:58;1.20;;;1.20;;
20318;SDS011;10317;47.254;11.314;2023-07-13T14:22:25;1.95;;;1.30;;
20318;SDS011;10317;47.254;11.314;2023-07-13T14:24:52;1.35;;;1.00;;
20318;SDS011;10317;47.254;11.314;2023-07-13T14:27:18;1.15;;;1.05;;
20318;SDS011;10317;47.254;11.314;2023-07-13T14:29:44;0.90;;;0.90;;
20318;SDS011;10317;47.254;11.314;2023-07-13T14:32:11;1.08;;;1.08;;
20318;SDS011;10317;47.254;11.314;2023-07-13T14:34:38;1.45;;;0.80;;
20318;SDS011;10317;47.254;11.314;2023-07-13T14:37:04;0.90;;;0.90;;
20318;SDS011;10317;47.254;11.314;2023-07-13T14:39:30;1.20;;;0.65;;
20318;SDS011;10317;47.254;11.314;2023-07-13T14:41:56;0.52;;;0.52;;
20318;SDS011;10317;47.254;11.314;2023-07-13T14:44:29;1.08;;;1.08;;
20318;SDS011;10317;47.254;11.314;2023-07-13T14:46:56;1.88;;;0.98;;
20318;SDS011;10317;47.254;11.314;2023-07-13T14:49:25;1.88;;;1.50;;
20318;SDS011;10317;47.254;11.314;2023-07-13T14:52:13;4.65;;;1.52;;
20318;SDS011;10317;47.254;11.314;2023-07-13T14:54:41;1.02;;;1.02;;
20318;SDS011;10317;47.254;11.314;2023-07-13T14:57:12;1.23;;;1.17;;
20318;SDS011;10317;47.254;11.314;2023-07-13T14:59:39;2.20;;;0.95;;
20318;SDS011;10317;47.254;11.314;2023-07-13T15:02:27;2.22;;;1.20;;
20318;SDS011;10317;47.254;11.314;2023-07-13T15:04:52;0.90;;;0.90;;
20318;SDS011;10317;47.254;11.314;2023-07-13T15:07:19;3.67;;;1.15;;
20318;SDS011;10317;47.254;11.314;2023-07-13T15:09:46;1.05;;;1.02;;
20318;SDS011;10317;47.254;11.314;2023-07-13T15:12:13;1.50;;;1.40;;
20318;SDS011;10317;47.254;11.314;2023-07-13T15:14:39;1.98;;;1.35;;
20318;SDS011;10317;47.254;11.314;2023-07-13T15:17:05;3.65;;;1.20;;
20318;SDS011;10317;47.254;11.314;2023-07-13T15:19:38;1.35;;;1.25;;
20318;SDS011;10317;47.254;11.314;2023-07-13T15:22:04;2.15;;;1.60;;
20318;SDS011;10317;47.254;11.314;2023-07-13T15:24:33;8.77;;;1.65;;
20318;SDS011;10317;47.254;11.314;2023-07-13T15:27:00;1.58;;;1.20;;
20318;SDS011;10317;47.254;11.314;2023-07-13T15:29:26;1.60;;;1.50;;
20318;SDS011;10317;47.254;11.314;2023-07-13T15:31:52;3.58;;;1.60;;
20318;SDS011;10317;47.254;11.314;2023-07-13T15:34:18;1.70;;;1.60;;
20318;SDS011;10317;47.254;11.314;2023-07-13T15:36:51;2.15;;;1.50;;
20318;SDS011;10317;47.254;11.314;2023-07-13T15:39:16;1.85;;;1.48;;
20318;SDS011;10317;47.254;11.314;2023-07-13T15:41:43;2.78;;;1.38;;
20318;SDS011;10317;47.254;11.314;2023-07-13T15:44:24;1.85;;;1.15;;
20318;SDS011;10317;47.254;11.314;2023-07-13T15:46:51;2.72;;;1.42;;